sensor_id;sensor_type;location;lat;lon;timestamp;pressure;altitude;pressure_sealevel;temperature;humidity
75604;BME280;64187;51.010;13.792;2023-01-29T00:02:17;101499.78;;;1.58;59.29
75604;BME280;64187;51.010;13.792;2023-01-29T00:07:16;101488.66;;;1.26;60.66
75604;BME280;64187;51.010;13.792;2023-01-29T00:12:15;101489.53;;;0.81;61.66
75604;BME280;64187;51.010;13.792;2023-01-29T00:17:14;101476.94;;;1.37;60.95
75604;BME280;64187;51.010;13.792;2023-01-29T00:22:13;101485.47;;;1.41;60.15
75604;BME280;64187;51.010;13.792;2023-01-29T00:27:12;101478.31;;;1.05;60.36
75604;BME280;64187;51.010;13.792;2023-01-29T00:32:11;101468.63;;;1.40;59.95
75604;BME280;64187;51.010;13.792;2023-01-29T00:37:09;101473.94;;;1.40;59.70
75604;BME280;64187;51.010;13.792;2023-01-29T00:42:08;101470.13;;;0.89;60.74
75604;BME280;64187;51.010;13.792;2023-01-29T00:47:26;101449.28;;;1.02;60.79
75604;BME280;64187;51.010;13.792;2023-01-29T00:52:34;101457.13;;;1.40;60.04
75604;BME280;64187;51.010;13.792;2023-01-29T00:57:35;101450.63;;;1.42;60.08
75604;BME280;64187;51.010;13.792;2023-01-29T01:02:34;101459.94;;;1.02;60.46
75604;BME280;64187;51.010;13.792;2023-01-29T01:07:54;101461.84;;;1.10;60.55
75604;BME280;64187;51.010;13.792;2023-01-29T01:17:58;101473.06;;;0.68;61.24
75604;BME280;64187;51.010;13.792;2023-01-29T01:22:57;101476.91;;;0.83;61.53
75604;BME280;64187;51.010;13.792;2023-01-29T01:27:58;101463.81;;;1.26;60.00
75604;BME280;64187;51.010;13.792;2023-01-29T01:32:57;101452.09;;;1.19;60.34
75604;BME280;64187;51.010;13.792;2023-01-29T01:37:55;101451.94;;;0.57;61.42
75604;BME280;64187;51.010;13.792;2023-01-29T01:42:59;101447.31;;;1.04;60.84
75604;BME280;64187;51.010;13.792;2023-01-29T01:48:02;101447.75;;;1.18;60.00
75604;BME280;64187;51.010;13.792;2023-01-29T01:53:13;101433.81;;;1.06;60.54
75604;BME280;64187;51.010;13.792;2023-01-29T01:58:21;101447.28;;;0.86;60.69
75604;BME280;64187;51.010;13.792;2023-01-29T02:03:23;101445.63;;;1.03;61.08
75604;BME280;64187;51.010;13.792;2023-01-29T02:14:08;101436.31;;;1.25;61.11
75604;BME280;64187;51.010;13.792;2023-01-29T02:19:15;101427.47;;;1.25;60.08
75604;BME280;64187;51.010;13.792;2023-01-29T02:30:11;101430.69;;;0.75;61.50
75604;BME280;64187;51.010;13.792;2023-01-29T02:35:14;101427.13;;;1.02;60.91
75604;BME280;64187;51.010;13.792;2023-01-29T02:45:57;101416.59;;;1.00;60.99
75604;BME280;64187;51.010;13.792;2023-01-29T02:51:03;101440.16;;;0.59;61.81
75604;BME280;64187;51.010;13.792;2023-01-29T02:56:50;101424.97;;;0.42;62.26
75604;BME280;64187;51.010;13.792;2023-01-29T03:01:33;101436.97;;;0.74;62.12
75604;BME280;64187;51.010;13.792;2023-01-29T03:06:44;101432.53;;;0.47;62.90
75604;BME280;64187;51.010;13.792;2023-01-29T03:11:50;101440.69;;;-0.30;63.78
75604;BME280;64187;51.010;13.792;2023-01-29T03:16:52;101440.94;;;-0.33;65.09
75604;BME280;64187;51.010;13.792;2023-01-29T03:21:56;101451.22;;;-0.57;64.08
75604;BME280;64187;51.010;13.792;2023-01-29T03:27:04;101442.66;;;-0.32;62.96
75604;BME280;64187;51.010;13.792;2023-01-29T03:32:24;101441.16;;;0.03;62.70
75604;BME280;64187;51.010;13.792;2023-01-29T03:37:32;101430.00;;;-0.20;63.26
75604;BME280;64187;51.010;13.792;2023-01-29T04:03:47;101437.03;;;-0.29;62.54
75604;BME280;64187;51.010;13.792;2023-01-29T04:14:12;101430.97;;;-0.11;62.31
75604;BME280;64187;51.010;13.792;2023-01-29T04:19:12;101415.53;;;-0.08;62.74
75604;BME280;64187;51.010;13.792;2023-01-29T04:24:13;101410.50;;;-0.87;64.23
75604;BME280;64187;51.010;13.792;2023-01-29T04:40:17;101390.91;;;-0.47;62.80
75604;BME280;64187;51.010;13.792;2023-01-29T04:45:25;101376.22;;;-0.71;63.72
75604;BME280;64187;51.010;13.792;2023-01-29T04:50:56;101369.09;;;-0.80;63.56
75604;BME280;64187;51.010;13.792;2023-01-29T04:56:07;101359.75;;;-0.27;62.96
75604;BME280;64187;51.010;13.792;2023-01-29T05:01:12;101359.88;;;-0.76;63.39
75604;BME280;64187;51.010;13.792;2023-01-29T05:06:12;101350.91;;;-0.28;61.86
75604;BME280;64187;51.010;13.792;2023-01-29T05:11:12;101338.53;;;-0.09;61.71
75604;BME280;64187;51.010;13.792;2023-01-29T05:16:25;101331.84;;;0.05;61.72
75604;BME280;64187;51.010;13.792;2023-01-29T05:21:25;101329.25;;;-0.43;62.07
75604;BME280;64187;51.010;13.792;2023-01-29T05:26:25;101342.00;;;-0.36;62.36
75604;BME280;64187;51.010;13.792;2023-01-29T05:31:43;101332.50;;;-0.49;61.46
75604;BME280;64187;51.010;13.792;2023-01-29T05:36:43;101326.38;;;-0.49;62.65
75604;BME280;64187;51.010;13.792;2023-01-29T05:41:42;101328.75;;;-0.18;62.86
75604;BME280;64187;51.010;13.792;2023-01-29T05:46:41;101325.59;;;-0.04;62.38
75604;BME280;64187;51.010;13.792;2023-01-29T05:51:39;101334.41;;;-0.31;63.07
75604;BME280;64187;51.010;13.792;2023-01-29T05:56:38;101337.75;;;-0.67;62.69
75604;BME280;64187;51.010;13.792;2023-01-29T06:01:37;101329.22;;;-0.33;62.19
75604;BME280;64187;51.010;13.792;2023-01-29T06:06:36;101328.00;;;-0.38;62.92
75604;BME280;64187;51.010;13.792;2023-01-29T06:11:35;101342.53;;;-0.80;64.46
75604;BME280;64187;51.010;13.792;2023-01-29T06:16:34;101338.81;;;-1.26;64.21
75604;BME280;64187;51.010;13.792;2023-01-29T06:21:33;101328.09;;;-0.77;64.25
75604;BME280;64187;51.010;13.792;2023-01-29T06:26:31;101345.84;;;-0.58;62.27
75604;BME280;64187;51.010;13.792;2023-01-29T06:31:30;101366.03;;;-0.85;63.44
75604;BME280;64187;51.010;13.792;2023-01-29T06:36:36;101380.03;;;-0.83;63.42
75604;BME280;64187;51.010;13.792;2023-01-29T06:41:35;101387.25;;;-0.46;61.69
75604;BME280;64187;51.010;13.792;2023-01-29T06:46:34;101386.16;;;-0.63;62.43
75604;BME280;64187;51.010;13.792;2023-01-29T06:51:33;101387.84;;;-0.72;62.22
75604;BME280;64187;51.010;13.792;2023-01-29T06:56:32;101402.00;;;-0.14;60.97
75604;BME280;64187;51.010;13.792;2023-01-29T07:01:34;101415.06;;;-0.31;61.16
75604;BME280;64187;51.010;13.792;2023-01-29T07:06:34;101430.47;;;-0.34;61.98
75604;BME280;64187;51.010;13.792;2023-01-29T07:11:33;101432.97;;;-0.33;62.46
75604;BME280;64187;51.010;13.792;2023-01-29T07:16:33;101440.38;;;-0.17;61.02
75604;BME280;64187;51.010;13.792;2023-01-29T07:21:32;101443.53;;;-0.04;61.09
75604;BME280;64187;51.010;13.792;2023-01-29T07:26:30;101448.94;;;0.14;61.02
75604;BME280;64187;51.010;13.792;2023-01-29T07:31:29;101446.72;;;0.10;61.14
75604;BME280;64187;51.010;13.792;2023-01-29T07:36:28;101420.06;;;-0.18;61.26
75604;BME280;64187;51.010;13.792;2023-01-29T07:41:27;101423.97;;;0.25;62.02
75604;BME280;64187;51.010;13.792;2023-01-29T07:46:30;101416.09;;;0.24;60.20
75604;BME280;64187;51.010;13.792;2023-01-29T07:51:28;101418.44;;;0.36;60.55
75604;BME280;64187;51.010;13.792;2023-01-29T07:56:27;101405.53;;;0.04;61.33
75604;BME280;64187;51.010;13.792;2023-01-29T08:01:26;101399.44;;;-0.06;62.05
75604;BME280;64187;51.010;13.792;2023-01-29T08:06:27;101390.34;;;6.35;79.47
75604;BME280;64187;51.010;13.792;2023-01-29T08:11:26;101348.81;;;9.30;52.63
75604;BME280;64187;51.010;13.792;2023-01-29T08:16:25;101341.94;;;8.94;50.13
75604;BME280;64187;51.010;13.792;2023-01-29T08:21:24;101363.97;;;5.79;45.59
75604;BME280;64187;51.010;13.792;2023-01-29T08:26:22;101352.88;;;3.42;52.09
75604;BME280;64187;51.010;13.792;2023-01-29T08:31:23;101360.44;;;2.06;55.11
75604;BME280;64187;51.010;13.792;2023-01-29T08:36:25;101364.81;;;1.81;56.00
75604;BME280;64187;51.010;13.792;2023-01-29T08:41:26;101350.50;;;1.90;57.18
75604;BME280;64187;51.010;13.792;2023-01-29T08:46:25;101354.28;;;1.45;58.08
75604;BME280;64187;51.010;13.792;2023-01-29T08:51:24;101365.44;;;1.23;58.36
75604;BME280;64187;51.010;13.792;2023-01-29T08:56:24;101364.44;;;1.76;57.40
75604;BME280;64187;51.010;13.792;2023-01-29T09:01:24;101383.25;;;2.01;56.40
75604;BME280;64187;51.010;13.792;2023-01-29T09:06:24;101365.50;;;1.05;59.23
75604;BME280;64187;51.010;13.792;2023-01-29T09:11:23;101350.09;;;1.43;58.14
75604;BME280;64187;51.010;13.792;2023-01-29T09:16:22;101343.13;;;0.80;61.26
75604;BME280;64187;51.010;13.792;2023-01-29T09:21:21;101339.28;;;1.00;60.22
75604;BME280;64187;51.010;13.792;2023-01-29T09:26:20;101348.53;;;1.32;59.91
75604;BME280;64187;51.010;13.792;2023-01-29T09:31:19;101339.38;;;1.69;58.76
75604;BME280;64187;51.010;13.792;2023-01-29T09:36:17;101321.16;;;1.30;59.26
75604;BME280;64187;51.010;13.792;2023-01-29T09:46:50;101324.47;;;1.84;58.88
75604;BME280;64187;51.010;13.792;2023-01-29T09:51:53;101326.81;;;1.87;57.76
75604;BME280;64187;51.010;13.792;2023-01-29T09:56:55;101328.09;;;1.75;58.47
75604;BME280;64187;51.010;13.792;2023-01-29T10:02:38;101306.97;;;1.98;57.76
75604;BME280;64187;51.010;13.792;2023-01-29T10:12:57;101273.72;;;2.59;57.14
75604;BME280;64187;51.010;13.792;2023-01-29T10:23:33;101285.59;;;2.73;57.44
75604;BME280;64187;51.010;13.792;2023-01-29T10:28:41;101286.06;;;1.77;58.70
75604;BME280;64187;51.010;13.792;2023-01-29T10:33:44;101280.69;;;2.36;58.00
75604;BME280;64187;51.010;13.792;2023-01-29T10:39:01;101286.50;;;2.15;58.18
75604;BME280;64187;51.010;13.792;2023-01-29T10:55:19;101277.63;;;1.56;60.07
75604;BME280;64187;51.010;13.792;2023-01-29T11:00:37;101260.69;;;1.73;59.75
75604;BME280;64187;51.010;13.792;2023-01-29T11:05:43;101241.03;;;1.82;60.82
75604;BME280;64187;51.010;13.792;2023-01-29T11:16:08;101212.75;;;2.71;58.43
75604;BME280;64187;51.010;13.792;2023-01-29T11:21:07;101209.88;;;2.81;57.80
75604;BME280;64187;51.010;13.792;2023-01-29T11:26:09;101202.44;;;3.16;56.97
75604;BME280;64187;51.010;13.792;2023-01-29T11:31:22;101187.28;;;1.77;60.22
75604;BME280;64187;51.010;13.792;2023-01-29T11:36:36;101177.34;;;2.36;59.87
75604;BME280;64187;51.010;13.792;2023-01-29T11:41:44;101167.63;;;2.11;59.92
75604;BME280;64187;51.010;13.792;2023-01-29T11:46:45;101169.59;;;2.83;59.73
75604;BME280;64187;51.010;13.792;2023-01-29T11:51:50;101178.50;;;3.22;56.83
75604;BME280;64187;51.010;13.792;2023-01-29T11:56:50;101171.31;;;2.43;59.28
75604;BME280;64187;51.010;13.792;2023-01-29T12:01:49;101159.94;;;2.65;58.88
75604;BME280;64187;51.010;13.792;2023-01-29T12:06:49;101156.47;;;2.56;59.32
75604;BME280;64187;51.010;13.792;2023-01-29T12:11:50;101141.97;;;3.38;56.67
75604;BME280;64187;51.010;13.792;2023-01-29T12:16:57;101136.66;;;2.90;58.71
75604;BME280;64187;51.010;13.792;2023-01-29T12:22:00;101136.69;;;2.82;58.21
75604;BME280;64187;51.010;13.792;2023-01-29T12:27:15;101122.56;;;2.49;59.37
75604;BME280;64187;51.010;13.792;2023-01-29T12:32:52;101105.19;;;2.28;60.49
75604;BME280;64187;51.010;13.792;2023-01-29T12:38:20;101085.25;;;2.72;59.10
75604;BME280;64187;51.010;13.792;2023-01-29T12:43:41;101093.88;;;3.53;59.03
75604;BME280;64187;51.010;13.792;2023-01-29T12:48:43;101095.94;;;3.51;57.13
75604;BME280;64187;51.010;13.792;2023-01-29T12:53:49;101093.50;;;3.64;57.79
75604;BME280;64187;51.010;13.792;2023-01-29T12:58:51;101085.44;;;3.87;56.89
75604;BME280;64187;51.010;13.792;2023-01-29T13:04:00;101076.88;;;3.92;56.23
75604;BME280;64187;51.010;13.792;2023-01-29T13:09:12;101076.16;;;3.75;56.93
75604;BME280;64187;51.010;13.792;2023-01-29T13:14:17;101079.03;;;3.96;56.79
75604;BME280;64187;51.010;13.792;2023-01-29T13:19:25;101049.56;;;3.96;56.97
75604;BME280;64187;51.010;13.792;2023-01-29T13:24:32;101056.00;;;3.10;58.91
75604;BME280;64187;51.010;13.792;2023-01-29T13:29:33;101046.06;;;3.50;58.18
75604;BME280;64187;51.010;13.792;2023-01-29T13:34:37;101043.03;;;3.53;58.33
75604;BME280;64187;51.010;13.792;2023-01-29T13:39:48;101044.72;;;3.92;57.56
75604;BME280;64187;51.010;13.792;2023-01-29T13:44:54;101047.41;;;3.22;59.95
75604;BME280;64187;51.010;13.792;2023-01-29T14:10:29;101031.72;;;3.88;57.53
75604;BME280;64187;51.010;13.792;2023-01-29T14:15:31;101031.19;;;3.93;57.50
75604;BME280;64187;51.010;13.792;2023-01-29T14:20:33;101036.91;;;3.67;58.41
75604;BME280;64187;51.010;13.792;2023-01-29T14:25:44;101043.44;;;3.64;58.28
75604;BME280;64187;51.010;13.792;2023-01-29T14:30:46;101025.53;;;3.42;59.17
75604;BME280;64187;51.010;13.792;2023-01-29T14:35:49;101017.75;;;3.78;57.66
75604;BME280;64187;51.010;13.792;2023-01-29T14:40:48;101024.50;;;3.89;58.48
75604;BME280;64187;51.010;13.792;2023-01-29T14:45:48;101022.63;;;3.75;59.42
75604;BME280;64187;51.010;13.792;2023-01-29T14:50:49;101026.31;;;3.74;58.40
75604;BME280;64187;51.010;13.792;2023-01-29T15:00:54;101045.31;;;3.64;58.72
75604;BME280;64187;51.010;13.792;2023-01-29T15:05:55;101025.22;;;2.83;60.56
75604;BME280;64187;51.010;13.792;2023-01-29T15:10:59;101022.38;;;2.84;60.90
75604;BME280;64187;51.010;13.792;2023-01-29T15:16:28;101031.16;;;2.62;61.90
75604;BME280;64187;51.010;13.792;2023-01-29T15:21:28;101022.94;;;3.02;61.04
75604;BME280;64187;51.010;13.792;2023-01-29T15:26:27;101021.06;;;2.80;61.39
75604;BME280;64187;51.010;13.792;2023-01-29T15:31:27;101010.44;;;2.64;62.17
75604;BME280;64187;51.010;13.792;2023-01-29T15:36:29;101004.84;;;2.82;61.94
75604;BME280;64187;51.010;13.792;2023-01-29T15:41:29;101003.47;;;2.86;61.36
75604;BME280;64187;51.010;13.792;2023-01-29T15:46:38;100997.06;;;2.95;61.39
75604;BME280;64187;51.010;13.792;2023-01-29T15:51:37;100994.41;;;2.55;63.22
75604;BME280;64187;51.010;13.792;2023-01-29T15:56:40;100991.38;;;2.67;63.36
75604;BME280;64187;51.010;13.792;2023-01-29T16:01:40;100985.47;;;2.40;63.26
75604;BME280;64187;51.010;13.792;2023-01-29T16:06:41;100996.69;;;2.27;63.46
75604;BME280;64187;51.010;13.792;2023-01-29T16:11:41;100989.09;;;1.59;65.54
75604;BME280;64187;51.010;13.792;2023-01-29T16:16:40;100974.44;;;1.71;66.05
75604;BME280;64187;51.010;13.792;2023-01-29T16:21:43;100977.69;;;2.22;64.59
75604;BME280;64187;51.010;13.792;2023-01-29T16:26:45;100974.31;;;2.28;64.54
75604;BME280;64187;51.010;13.792;2023-01-29T16:31:46;100967.31;;;2.27;64.17
75604;BME280;64187;51.010;13.792;2023-01-29T16:36:47;100963.72;;;2.51;63.54
75604;BME280;64187;51.010;13.792;2023-01-29T16:47:12;100948.63;;;2.27;64.39
75604;BME280;64187;51.010;13.792;2023-01-29T16:52:27;100944.88;;;2.45;63.87
75604;BME280;64187;51.010;13.792;2023-01-29T16:57:31;100944.47;;;2.87;62.70
75604;BME280;64187;51.010;13.792;2023-01-29T17:02:35;100942.09;;;2.69;63.04
75604;BME280;64187;51.010;13.792;2023-01-29T17:07:36;100936.22;;;2.34;64.40
75604;BME280;64187;51.010;13.792;2023-01-29T17:12:35;100928.88;;;2.68;63.19
75604;BME280;64187;51.010;13.792;2023-01-29T17:17:36;100936.53;;;2.40;63.74
75604;BME280;64187;51.010;13.792;2023-01-29T17:22:35;100933.91;;;2.31;63.46
75604;BME280;64187;51.010;13.792;2023-01-29T17:27:34;100929.56;;;2.39;63.41
75604;BME280;64187;51.010;13.792;2023-01-29T17:32:33;100930.78;;;2.59;62.27
75604;BME280;64187;51.010;13.792;2023-01-29T17:37:42;100936.25;;;2.66;62.41
75604;BME280;64187;51.010;13.792;2023-01-29T17:42:41;100925.34;;;2.75;61.38
75604;BME280;64187;51.010;13.792;2023-01-29T17:47:40;100915.75;;;2.58;62.29
75604;BME280;64187;51.010;13.792;2023-01-29T17:52:39;100913.16;;;2.42;62.98
75604;BME280;64187;51.010;13.792;2023-01-29T17:57:38;100911.94;;;2.21;63.33
75604;BME280;64187;51.010;13.792;2023-01-29T18:02:37;100903.88;;;2.29;62.27
75604;BME280;64187;51.010;13.792;2023-01-29T18:07:37;100898.53;;;1.73;63.63
75604;BME280;64187;51.010;13.792;2023-01-29T18:12:39;100901.75;;;1.53;64.44
75604;BME280;64187;51.010;13.792;2023-01-29T18:17:39;100891.06;;;1.53;64.20
75604;BME280;64187;51.010;13.792;2023-01-29T18:22:38;100884.88;;;1.60;63.57
75604;BME280;64187;51.010;13.792;2023-01-29T18:27:37;100881.91;;;1.39;63.82
75604;BME280;64187;51.010;13.792;2023-01-29T18:32:35;100874.81;;;1.79;62.35
75604;BME280;64187;51.010;13.792;2023-01-29T18:37:34;100868.34;;;1.73;62.96
75604;BME280;64187;51.010;13.792;2023-01-29T18:42:33;100867.75;;;1.38;63.95
75604;BME280;64187;51.010;13.792;2023-01-29T18:47:33;100865.28;;;1.92;62.67
75604;BME280;64187;51.010;13.792;2023-01-29T18:52:32;100863.91;;;2.05;61.15
75604;BME280;64187;51.010;13.792;2023-01-29T18:57:31;100859.22;;;2.07;61.14
75604;BME280;64187;51.010;13.792;2023-01-29T19:02:50;100855.03;;;1.65;61.06
75604;BME280;64187;51.010;13.792;2023-01-29T19:07:49;100841.06;;;2.02;60.62
75604;BME280;64187;51.010;13.792;2023-01-29T19:12:49;100839.94;;;1.33;61.85
75604;BME280;64187;51.010;13.792;2023-01-29T19:17:49;100820.03;;;1.51;60.86
75604;BME280;64187;51.010;13.792;2023-01-29T19:22:48;100816.06;;;1.47;61.49
75604;BME280;64187;51.010;13.792;2023-01-29T19:27:47;100809.91;;;1.47;61.56
75604;BME280;64187;51.010;13.792;2023-01-29T19:32:46;100806.31;;;1.71;61.06
75604;BME280;64187;51.010;13.792;2023-01-29T19:37:44;100803.16;;;2.07;59.96
75604;BME280;64187;51.010;13.792;2023-01-29T19:42:43;100802.34;;;1.59;61.61
75604;BME280;64187;51.010;13.792;2023-01-29T19:47:42;100804.25;;;1.89;60.95
75604;BME280;64187;51.010;13.792;2023-01-29T19:52:41;100800.94;;;1.79;60.78
75604;BME280;64187;51.010;13.792;2023-01-29T19:57:51;100787.75;;;1.78;60.07
75604;BME280;64187;51.010;13.792;2023-01-29T20:02:50;100804.63;;;1.06;62.21
75604;BME280;64187;51.010;13.792;2023-01-29T20:07:49;100804.13;;;1.11;62.00
75604;BME280;64187;51.010;13.792;2023-01-29T20:12:48;100803.78;;;1.05;62.32
75604;BME280;64187;51.010;13.792;2023-01-29T20:17:47;100812.94;;;0.62;62.76
75604;BME280;64187;51.010;13.792;2023-01-29T20:22:45;100803.97;;;1.12;61.88
75604;BME280;64187;51.010;13.792;2023-01-29T20:27:44;100807.44;;;1.21;62.02
75604;BME280;64187;51.010;13.792;2023-01-29T20:32:43;100802.78;;;0.98;61.93
75604;BME280;64187;51.010;13.792;2023-01-29T20:37:42;100791.97;;;1.08;61.45
75604;BME280;64187;51.010;13.792;2023-01-29T20:42:40;100792.47;;;0.79;62.44
75604;BME280;64187;51.010;13.792;2023-01-29T20:47:40;100777.25;;;4.40;88.49
75604;BME280;64187;51.010;13.792;2023-01-29T20:52:40;100768.53;;;3.50;54.51
75604;BME280;64187;51.010;13.792;2023-01-29T20:57:39;100776.06;;;1.87;57.58
75604;BME280;64187;51.010;13.792;2023-01-29T21:02:38;100765.06;;;1.82;58.15
75604;BME280;64187;51.010;13.792;2023-01-29T21:07:37;100759.84;;;0.60;61.45
75604;BME280;64187;51.010;13.792;2023-01-29T21:12:36;100749.84;;;0.79;60.92
75604;BME280;64187;51.010;13.792;2023-01-29T21:17:35;100743.38;;;0.65;62.45
75604;BME280;64187;51.010;13.792;2023-01-29T21:22:34;100727.56;;;0.55;61.10
75604;BME280;64187;51.010;13.792;2023-01-29T21:27:33;100709.19;;;0.77;61.75
75604;BME280;64187;51.010;13.792;2023-01-29T21:32:32;100700.22;;;0.78;60.68
75604;BME280;64187;51.010;13.792;2023-01-29T21:37:31;100705.41;;;0.55;60.74
75604;BME280;64187;51.010;13.792;2023-01-29T21:42:34;100706.56;;;0.69;59.47
75604;BME280;64187;51.010;13.792;2023-01-29T21:47:51;100694.81;;;1.11;58.29
75604;BME280;64187;51.010;13.792;2023-01-29T21:52:50;100688.41;;;0.72;59.65
75604;BME280;64187;51.010;13.792;2023-01-29T21:57:49;100673.19;;;0.97;59.59
75604;BME280;64187;51.010;13.792;2023-01-29T22:02:48;100663.41;;;1.29;58.19
75604;BME280;64187;51.010;13.792;2023-01-29T22:07:49;100647.63;;;1.19;56.75
75604;BME280;64187;51.010;13.792;2023-01-29T22:12:48;100628.44;;;1.24;57.73
75604;BME280;64187;51.010;13.792;2023-01-29T22:17:46;100624.47;;;1.20;58.15
75604;BME280;64187;51.010;13.792;2023-01-29T22:22:45;100613.97;;;0.71;59.36
75604;BME280;64187;51.010;13.792;2023-01-29T22:27:44;100598.06;;;1.33;57.88
75604;BME280;64187;51.010;13.792;2023-01-29T22:32:43;100571.97;;;1.20;58.01
75604;BME280;64187;51.010;13.792;2023-01-29T22:37:42;100568.94;;;0.92;58.11
75604;BME280;64187;51.010;13.792;2023-01-29T22:42:41;100545.25;;;0.97;57.82
75604;BME280;64187;51.010;13.792;2023-01-29T22:47:40;100534.88;;;1.34;57.32
75604;BME280;64187;51.010;13.792;2023-01-29T22:52:38;100535.41;;;1.29;57.41
75604;BME280;64187;51.010;13.792;2023-01-29T22:57:40;100509.81;;;1.43;56.57
75604;BME280;64187;51.010;13.792;2023-01-29T23:02:39;100497.59;;;1.48;55.72
75604;BME280;64187;51.010;13.792;2023-01-29T23:07:38;100500.44;;;1.24;56.59
75604;BME280;64187;51.010;13.792;2023-01-29T23:12:37;100499.88;;;0.82;58.19
75604;BME280;64187;51.010;13.792;2023-01-29T23:17:36;100489.69;;;0.86;57.87
75604;BME280;64187;51.010;13.792;2023-01-29T23:22:37;100484.63;;;0.68;58.32
75604;BME280;64187;51.010;13.792;2023-01-29T23:27:35;100478.72;;;0.81;57.83
75604;BME280;64187;51.010;13.792;2023-01-29T23:32:34;100478.97;;;0.63;58.63
75604;BME280;64187;51.010;13.792;2023-01-29T23:37:35;100466.00;;;0.60;58.26
75604;BME280;64187;51.010;13.792;2023-01-29T23:42:34;100445.72;;;0.82;57.89
75604;BME280;64187;51.010;13.792;2023-01-29T23:47:33;100438.28;;;0.77;58.67
75604;BME280;64187;51.010;13.792;2023-01-29T23:52:31;100414.25;;;1.08;58.15
75604;BME280;64187;51.010;13.792;2023-01-29T23:57:30;100394.28;;;1.04;56.95
